createdAt,value
2018-10-05T02:41:58.701Z,13.89
2018-10-05T02:44:33.139Z,13.86
2018-10-05T02:47:31.174Z,13.80
2018-10-05T02:50:06.583Z,13.71
2018-10-05T05:15:10.232Z,12.37
2018-10-05T05:21:12.802Z,12.43
2018-10-05T05:26:44.281Z,12.50
2018-10-05T05:29:16.920Z,12.54
2018-10-05T05:34:46.714Z,12.57
2018-10-05T05:37:22.570Z,12.61
2018-10-05T05:40:04.273Z,12.62
2018-10-05T05:45:36.844Z,12.69
2018-10-05T06:22:54.935Z,13.20
2018-10-05T06:34:39.869Z,13.50
2018-10-05T06:37:09.538Z,13.59
2018-10-05T06:39:41.073Z,13.65
2018-10-05T06:42:11.273Z,13.70
2018-10-05T06:44:40.782Z,13.65
2018-10-05T06:47:10.909Z,13.71
2018-10-05T06:49:41.296Z,13.85
2018-10-05T06:52:14.588Z,13.99
2018-10-05T06:54:46.785Z,14.12
2018-10-05T06:57:17.209Z,14.16
2018-10-05T06:59:53.040Z,14.21
2018-10-05T07:02:33.736Z,14.26
2018-10-05T07:05:05.077Z,14.37
2018-10-05T07:07:38.014Z,14.43
2018-10-05T07:10:08.733Z,14.41
2018-10-05T07:12:39.227Z,14.48
2018-10-05T07:15:10.586Z,14.57
2018-10-05T07:17:42.043Z,14.65
2018-10-05T07:20:12.610Z,14.79
2018-10-05T07:22:50.001Z,14.92
2018-10-05T07:25:21.394Z,15.00
2018-10-05T07:27:53.601Z,15.06
2018-10-05T07:30:24.731Z,15.15
2018-10-05T07:33:00.298Z,15.21
2018-10-05T07:35:37.567Z,15.27
2018-10-05T07:38:10.579Z,15.41
2018-10-05T07:40:44.934Z,15.52
2018-10-05T07:43:15.965Z,15.61
2018-10-05T07:45:46.024Z,15.72
2018-10-05T07:48:20.950Z,15.77
2018-10-05T07:50:52.612Z,15.87
2018-10-05T07:53:23.121Z,15.98
2018-10-05T07:56:44.982Z,16.13
2018-10-05T07:59:14.871Z,16.15
2018-10-05T08:01:51.738Z,16.24
2018-10-05T08:04:21.459Z,16.37
2018-10-05T08:06:51.477Z,16.49
2018-10-05T08:09:22.181Z,16.61
2018-10-05T08:12:06.144Z,16.64
2018-10-05T08:14:38.308Z,16.64
2018-10-05T08:17:13.441Z,16.63
2018-10-05T08:19:52.540Z,16.67
2018-10-05T08:22:42.511Z,16.81
2018-10-05T08:25:19.584Z,17.01
2018-10-05T08:27:53.836Z,17.15
2018-10-05T08:30:35.138Z,17.24
2018-10-05T08:33:21.633Z,17.36
2018-10-05T08:35:53.632Z,17.43
2018-10-05T08:38:23.986Z,17.58
2018-10-05T08:40:53.685Z,17.64
2018-10-05T08:43:29.815Z,17.71
2018-10-05T08:46:07.717Z,17.75
2018-10-05T08:48:44.279Z,17.91
2018-10-05T08:51:31.762Z,17.93
2018-10-05T08:57:22.586Z,17.99
2018-10-05T09:41:25.592Z,19.54
2018-10-05T09:44:07.903Z,19.65
2018-10-05T09:47:42.179Z,19.82
2018-10-05T09:50:18.449Z,19.89
2018-10-05T09:53:11.650Z,20.08
2018-10-05T09:56:06.042Z,20.23
2018-10-05T09:58:50.404Z,20.35
2018-10-05T10:01:37.418Z,20.52
2018-10-05T10:28:23.695Z,21.25
2018-10-05T10:30:55.813Z,21.33
2018-10-05T10:33:36.148Z,21.28
2018-10-05T10:36:10.841Z,21.44
2018-10-05T10:38:49.017Z,21.61
2018-10-05T10:41:38.349Z,21.67
2018-10-05T10:44:23.918Z,21.76
2018-10-05T10:47:19.716Z,21.89
2018-10-05T10:52:58.376Z,22.31
2018-10-05T10:56:22.469Z,22.41
2018-10-05T10:59:04.728Z,22.30
2018-10-05T11:01:39.395Z,22.40
2018-10-05T11:04:23.391Z,22.45
2018-10-05T11:07:41.363Z,22.32
2018-10-05T11:13:26.024Z,22.06
2018-10-05T11:16:01.906Z,22.12
2018-10-05T11:22:13.500Z,22.20
2018-10-05T11:35:23.091Z,22.48
2018-10-05T11:38:35.705Z,22.66
2018-10-05T11:41:18.609Z,22.64
2018-10-05T11:44:06.078Z,22.79
2018-10-05T11:52:35.314Z,22.89
2018-10-05T11:55:13.944Z,22.79
2018-10-05T11:58:12.106Z,22.88
2018-10-05T12:00:52.575Z,23.01
2018-10-05T12:03:34.744Z,23.00
2018-10-05T12:06:14.722Z,23.04
2018-10-05T12:08:47.578Z,23.15
2018-10-05T12:11:53.388Z,23.22
2018-10-05T12:14:26.075Z,23.34
2018-10-05T12:17:03.607Z,23.47
2018-10-05T12:22:53.905Z,23.34
2018-10-05T12:25:30.492Z,23.50
2018-10-05T12:28:11.884Z,23.63
2018-10-05T12:30:43.925Z,23.59
2018-10-05T12:33:15.621Z,23.48
2018-10-05T12:35:51.856Z,23.61
2018-10-05T12:38:33.651Z,23.69
2018-10-05T12:41:19.876Z,23.59
2018-10-05T12:43:50.715Z,23.62
2018-10-05T12:46:23.598Z,23.64
2018-10-05T12:48:54.200Z,23.70
2018-10-05T12:51:33.719Z,23.62
2018-10-05T12:54:07.976Z,23.63
2018-10-05T12:56:48.121Z,23.66
2018-10-05T13:02:15.888Z,23.97
2018-10-05T13:08:12.608Z,24.12
2018-10-05T13:11:19.584Z,24.15
2018-10-05T13:13:52.678Z,24.10
2018-10-05T13:16:33.959Z,24.11
2018-10-05T13:19:07.403Z,24.00
2018-10-05T13:21:57.481Z,24.14
2018-10-05T13:24:32.108Z,24.16
2018-10-05T13:27:04.097Z,24.14
2018-10-05T13:29:37.122Z,23.98
2018-10-05T13:32:08.886Z,23.96
2018-10-05T13:37:35.185Z,24.11
2018-10-05T13:40:15.090Z,24.10
2018-10-05T13:42:46.797Z,24.14
2018-10-05T13:45:18.574Z,24.15
2018-10-05T14:02:29.508Z,24.15
2018-10-05T14:05:03.656Z,24.15
2018-10-05T14:07:36.878Z,24.15
2018-10-05T14:10:08.666Z,24.15
2018-10-05T14:12:39.604Z,24.12
2018-10-05T14:15:15.156Z,24.17
2018-10-05T14:17:46.121Z,24.20
2018-10-05T14:20:16.730Z,24.24
2018-10-05T14:22:49.627Z,24.26
2018-10-05T14:25:23.491Z,24.22
2018-10-05T14:27:55.614Z,24.25
2018-10-05T14:30:27.622Z,24.20
2018-10-05T14:33:03.274Z,24.16
2018-10-05T14:35:39.058Z,24.20
2018-10-05T14:38:13.162Z,24.14
2018-10-05T14:40:43.305Z,24.12
2018-10-05T14:43:20.853Z,24.14
2018-10-05T14:46:04.728Z,24.15
2018-10-05T14:48:40.733Z,24.08
2018-10-05T14:54:53.730Z,23.94
2018-10-05T14:57:32.153Z,24.01
2018-10-05T15:00:18.438Z,24.02
2018-10-05T15:02:56.446Z,23.95
2018-10-05T15:05:43.120Z,23.88
2018-10-05T15:08:46.362Z,23.79
2018-10-05T15:11:23.831Z,23.72
2018-10-05T15:14:15.242Z,23.71
2018-10-05T15:16:56.334Z,23.73
2018-10-05T15:19:29.004Z,23.71
2018-10-05T15:22:06.570Z,23.67
2018-10-05T15:24:41.513Z,23.63
2018-10-05T15:27:32.697Z,23.59
2018-10-05T15:30:21.509Z,23.54
2018-10-05T15:35:58.915Z,23.35
2018-10-05T15:38:42.926Z,23.28
2018-10-05T15:41:19.119Z,23.19
2018-10-05T15:44:15.201Z,23.13
2018-10-05T15:47:07.710Z,23.03
2018-10-05T16:43:06.332Z,21.43
2018-10-05T16:45:39.076Z,21.37
2018-10-05T16:48:10.442Z,21.32
2018-10-05T21:04:40.873Z,16.91
2018-10-05T21:07:28.600Z,16.90
2018-10-05T21:10:17.797Z,16.84
2018-10-05T22:12:05.052Z,15.96
2018-10-05T22:15:55.162Z,15.96
2018-10-05T22:22:01.837Z,15.86
2018-10-05T22:28:13.701Z,15.88
2018-10-05T22:54:31.387Z,14.87
2018-10-05T23:53:11.490Z,15.25
2018-10-05T23:56:55.229Z,15.23
